sensor_id;sensor_type;location;lat;lon;timestamp;temperature;humidity
12481;DHT22;6305;48.398;11.762;2023-04-15T00:00:58;4.40;99.90
12481;DHT22;6305;48.398;11.762;2023-04-15T00:03:25;4.40;99.90
12481;DHT22;6305;48.398;11.762;2023-04-15T00:05:53;4.40;99.90
12481;DHT22;6305;48.398;11.762;2023-04-15T00:08:20;4.40;99.90
12481;DHT22;6305;48.398;11.762;2023-04-15T00:10:46;4.50;99.90
12481;DHT22;6305;48.398;11.762;2023-04-15T00:13:14;4.50;99.90
12481;DHT22;6305;48.398;11.762;2023-04-15T00:15:42;4.60;99.90
12481;DHT22;6305;48.398;11.762;2023-04-15T00:18:09;4.60;99.90
12481;DHT22;6305;48.398;11.762;2023-04-15T00:20:36;4.60;99.90
12481;DHT22;6305;48.398;11.762;2023-04-15T00:23:03;4.60;99.90
12481;DHT22;6305;48.398;11.762;2023-04-15T00:25:30;4.60;99.90
12481;DHT22;6305;48.398;11.762;2023-04-15T00:27:57;4.60;99.90
12481;DHT22;6305;48.398;11.762;2023-04-15T00:30:24;4.70;99.90
12481;DHT22;6305;48.398;11.762;2023-04-15T00:32:53;4.60;99.90
12481;DHT22;6305;48.398;11.762;2023-04-15T00:35:21;4.60;99.90
12481;DHT22;6305;48.398;11.762;2023-04-15T00:37:49;4.70;99.90
12481;DHT22;6305;48.398;11.762;2023-04-15T00:40:18;4.70;99.90
12481;DHT22;6305;48.398;11.762;2023-04-15T00:42:46;4.70;99.90
12481;DHT22;6305;48.398;11.762;2023-04-15T00:45:13;4.70;99.90
12481;DHT22;6305;48.398;11.762;2023-04-15T00:47:42;4.60;99.90
12481;DHT22;6305;48.398;11.762;2023-04-15T00:50:11;4.60;99.90
12481;DHT22;6305;48.398;11.762;2023-04-15T00:52:39;4.60;99.90
12481;DHT22;6305;48.398;11.762;2023-04-15T00:55:07;4.60;99.90
12481;DHT22;6305;48.398;11.762;2023-04-15T00:57:38;4.60;99.90
12481;DHT22;6305;48.398;11.762;2023-04-15T01:00:06;4.60;99.90
12481;DHT22;6305;48.398;11.762;2023-04-15T01:02:34;4.60;99.90
12481;DHT22;6305;48.398;11.762;2023-04-15T01:05:02;4.60;99.90
12481;DHT22;6305;48.398;11.762;2023-04-15T01:07:31;4.60;99.90
12481;DHT22;6305;48.398;11.762;2023-04-15T01:09:58;4.70;99.90
12481;DHT22;6305;48.398;11.762;2023-04-15T01:12:26;4.60;99.90
12481;DHT22;6305;48.398;11.762;2023-04-15T01:14:54;4.60;99.90
12481;DHT22;6305;48.398;11.762;2023-04-15T01:17:21;4.60;99.90
12481;DHT22;6305;48.398;11.762;2023-04-15T01:19:49;4.60;99.90
12481;DHT22;6305;48.398;11.762;2023-04-15T01:22:16;4.60;99.90
12481;DHT22;6305;48.398;11.762;2023-04-15T01:24:48;4.60;99.90
12481;DHT22;6305;48.398;11.762;2023-04-15T01:27:19;4.60;99.90
12481;DHT22;6305;48.398;11.762;2023-04-15T01:29:46;4.60;99.90
12481;DHT22;6305;48.398;11.762;2023-04-15T01:32:13;4.60;99.90
12481;DHT22;6305;48.398;11.762;2023-04-15T01:35:00;4.60;99.90
12481;DHT22;6305;48.398;11.762;2023-04-15T01:37:45;4.60;99.90
12481;DHT22;6305;48.398;11.762;2023-04-15T01:40:16;4.60;99.90
12481;DHT22;6305;48.398;11.762;2023-04-15T01:42:45;4.60;99.90
12481;DHT22;6305;48.398;11.762;2023-04-15T01:45:16;4.60;99.90
12481;DHT22;6305;48.398;11.762;2023-04-15T01:47:44;4.60;99.90
12481;DHT22;6305;48.398;11.762;2023-04-15T01:50:12;4.60;99.90
12481;DHT22;6305;48.398;11.762;2023-04-15T01:52:41;4.60;99.90
12481;DHT22;6305;48.398;11.762;2023-04-15T01:55:10;4.60;99.90
12481;DHT22;6305;48.398;11.762;2023-04-15T01:57:39;4.60;99.90
12481;DHT22;6305;48.398;11.762;2023-04-15T02:00:09;4.60;99.90
12481;DHT22;6305;48.398;11.762;2023-04-15T02:02:41;4.60;99.90
12481;DHT22;6305;48.398;11.762;2023-04-15T02:05:09;4.50;99.90
12481;DHT22;6305;48.398;11.762;2023-04-15T02:07:38;4.60;99.90
12481;DHT22;6305;48.398;11.762;2023-04-15T02:10:07;4.60;99.90
12481;DHT22;6305;48.398;11.762;2023-04-15T02:12:36;4.50;99.90
12481;DHT22;6305;48.398;11.762;2023-04-15T02:15:05;4.50;99.90
12481;DHT22;6305;48.398;11.762;2023-04-15T02:17:35;4.50;99.90
12481;DHT22;6305;48.398;11.762;2023-04-15T02:20:04;4.50;99.90
12481;DHT22;6305;48.398;11.762;2023-04-15T02:22:32;4.60;99.90
12481;DHT22;6305;48.398;11.762;2023-04-15T02:25:01;4.50;99.90
12481;DHT22;6305;48.398;11.762;2023-04-15T02:27:29;4.50;99.90
12481;DHT22;6305;48.398;11.762;2023-04-15T02:29:58;4.50;99.90
12481;DHT22;6305;48.398;11.762;2023-04-15T02:32:27;4.50;99.90
12481;DHT22;6305;48.398;11.762;2023-04-15T02:35:01;4.50;99.90
12481;DHT22;6305;48.398;11.762;2023-04-15T02:37:30;4.50;99.90
12481;DHT22;6305;48.398;11.762;2023-04-15T02:40:02;4.60;99.90
12481;DHT22;6305;48.398;11.762;2023-04-15T02:42:31;4.60;99.90
12481;DHT22;6305;48.398;11.762;2023-04-15T02:45:01;4.60;99.90
12481;DHT22;6305;48.398;11.762;2023-04-15T02:47:33;4.60;99.90
12481;DHT22;6305;48.398;11.762;2023-04-15T02:50:04;4.60;99.90
12481;DHT22;6305;48.398;11.762;2023-04-15T02:52:32;4.60;99.90
12481;DHT22;6305;48.398;11.762;2023-04-15T02:55:01;4.60;99.90
12481;DHT22;6305;48.398;11.762;2023-04-15T02:57:30;4.60;99.90
12481;DHT22;6305;48.398;11.762;2023-04-15T03:00:05;4.60;99.90
12481;DHT22;6305;48.398;11.762;2023-04-15T03:02:36;4.60;99.90
12481;DHT22;6305;48.398;11.762;2023-04-15T03:05:11;4.60;99.90
12481;DHT22;6305;48.398;11.762;2023-04-15T03:07:42;4.60;99.90
12481;DHT22;6305;48.398;11.762;2023-04-15T03:10:11;4.60;99.90
12481;DHT22;6305;48.398;11.762;2023-04-15T03:12:40;4.60;99.90
12481;DHT22;6305;48.398;11.762;2023-04-15T03:15:10;4.60;99.90
12481;DHT22;6305;48.398;11.762;2023-04-15T03:17:43;4.60;99.90
12481;DHT22;6305;48.398;11.762;2023-04-15T03:20:14;4.60;99.90
12481;DHT22;6305;48.398;11.762;2023-04-15T03:22:43;4.70;99.90
12481;DHT22;6305;48.398;11.762;2023-04-15T03:25:11;4.60;99.90
12481;DHT22;6305;48.398;11.762;2023-04-15T03:27:40;4.70;99.90
12481;DHT22;6305;48.398;11.762;2023-04-15T03:30:10;4.60;99.90
12481;DHT22;6305;48.398;11.762;2023-04-15T03:32:39;4.70;99.90
12481;DHT22;6305;48.398;11.762;2023-04-15T03:35:08;4.60;99.90
12481;DHT22;6305;48.398;11.762;2023-04-15T03:37:38;4.70;99.90
12481;DHT22;6305;48.398;11.762;2023-04-15T03:40:08;4.70;99.90
12481;DHT22;6305;48.398;11.762;2023-04-15T03:42:36;4.60;99.90
12481;DHT22;6305;48.398;11.762;2023-04-15T03:45:05;4.60;99.90
12481;DHT22;6305;48.398;11.762;2023-04-15T03:47:34;4.60;99.90
12481;DHT22;6305;48.398;11.762;2023-04-15T03:50:02;4.60;99.90
12481;DHT22;6305;48.398;11.762;2023-04-15T03:52:31;4.60;99.90
12481;DHT22;6305;48.398;11.762;2023-04-15T03:55:00;4.60;99.90
12481;DHT22;6305;48.398;11.762;2023-04-15T03:57:29;4.60;99.90
12481;DHT22;6305;48.398;11.762;2023-04-15T03:59:58;4.60;99.90
12481;DHT22;6305;48.398;11.762;2023-04-15T04:02:27;4.50;99.90
12481;DHT22;6305;48.398;11.762;2023-04-15T04:04:55;4.50;99.90
12481;DHT22;6305;48.398;11.762;2023-04-15T04:07:24;4.50;99.90
12481;DHT22;6305;48.398;11.762;2023-04-15T04:09:52;4.50;99.90
12481;DHT22;6305;48.398;11.762;2023-04-15T04:12:21;4.50;99.90
12481;DHT22;6305;48.398;11.762;2023-04-15T04:14:49;4.40;99.90
12481;DHT22;6305;48.398;11.762;2023-04-15T04:17:18;4.50;99.90
12481;DHT22;6305;48.398;11.762;2023-04-15T04:19:46;4.40;99.90
12481;DHT22;6305;48.398;11.762;2023-04-15T04:22:14;4.40;99.90
12481;DHT22;6305;48.398;11.762;2023-04-15T04:24:43;4.50;99.90
12481;DHT22;6305;48.398;11.762;2023-04-15T04:27:11;4.50;99.90
12481;DHT22;6305;48.398;11.762;2023-04-15T04:29:40;4.50;99.90
12481;DHT22;6305;48.398;11.762;2023-04-15T04:32:09;4.50;99.90
12481;DHT22;6305;48.398;11.762;2023-04-15T04:34:37;4.50;99.90
12481;DHT22;6305;48.398;11.762;2023-04-15T04:37:05;4.50;99.90
12481;DHT22;6305;48.398;11.762;2023-04-15T04:39:33;4.50;99.90
12481;DHT22;6305;48.398;11.762;2023-04-15T04:42:01;4.50;99.90
12481;DHT22;6305;48.398;11.762;2023-04-15T04:44:30;4.50;99.90
12481;DHT22;6305;48.398;11.762;2023-04-15T04:46:59;4.50;99.90
12481;DHT22;6305;48.398;11.762;2023-04-15T04:49:28;4.60;99.90
12481;DHT22;6305;48.398;11.762;2023-04-15T04:51:56;4.60;99.90
12481;DHT22;6305;48.398;11.762;2023-04-15T04:54:25;4.60;99.90
12481;DHT22;6305;48.398;11.762;2023-04-15T04:56:53;4.60;99.90
12481;DHT22;6305;48.398;11.762;2023-04-15T04:59:21;4.70;99.90
12481;DHT22;6305;48.398;11.762;2023-04-15T05:01:50;4.70;99.90
12481;DHT22;6305;48.398;11.762;2023-04-15T05:04:19;4.70;99.90
12481;DHT22;6305;48.398;11.762;2023-04-15T05:06:47;4.80;99.90
12481;DHT22;6305;48.398;11.762;2023-04-15T05:09:16;4.80;99.90
12481;DHT22;6305;48.398;11.762;2023-04-15T05:11:44;4.80;99.90
12481;DHT22;6305;48.398;11.762;2023-04-15T05:14:13;4.90;99.90
12481;DHT22;6305;48.398;11.762;2023-04-15T05:16:41;4.90;99.90
12481;DHT22;6305;48.398;11.762;2023-04-15T05:19:10;4.90;99.90
12481;DHT22;6305;48.398;11.762;2023-04-15T05:21:39;5.00;99.90
12481;DHT22;6305;48.398;11.762;2023-04-15T05:24:08;5.10;99.90
12481;DHT22;6305;48.398;11.762;2023-04-15T05:26:36;5.10;99.90
12481;DHT22;6305;48.398;11.762;2023-04-15T05:29:04;5.10;99.90
12481;DHT22;6305;48.398;11.762;2023-04-15T05:31:33;5.10;99.90
12481;DHT22;6305;48.398;11.762;2023-04-15T05:34:01;5.20;99.90
12481;DHT22;6305;48.398;11.762;2023-04-15T05:36:29;5.20;99.90
12481;DHT22;6305;48.398;11.762;2023-04-15T05:38:59;5.30;99.90
12481;DHT22;6305;48.398;11.762;2023-04-15T05:41:27;5.40;99.90
12481;DHT22;6305;48.398;11.762;2023-04-15T05:43:56;5.40;99.90
12481;DHT22;6305;48.398;11.762;2023-04-15T05:46:24;5.50;99.90
12481;DHT22;6305;48.398;11.762;2023-04-15T05:48:52;5.60;99.90
12481;DHT22;6305;48.398;11.762;2023-04-15T05:51:20;5.60;99.90
12481;DHT22;6305;48.398;11.762;2023-04-15T05:53:48;5.60;99.90
12481;DHT22;6305;48.398;11.762;2023-04-15T05:56:18;5.70;99.90
12481;DHT22;6305;48.398;11.762;2023-04-15T05:58:47;5.80;99.90
12481;DHT22;6305;48.398;11.762;2023-04-15T06:01:15;5.90;99.90
12481;DHT22;6305;48.398;11.762;2023-04-15T06:03:44;5.90;99.90
12481;DHT22;6305;48.398;11.762;2023-04-15T06:06:12;6.00;99.90
12481;DHT22;6305;48.398;11.762;2023-04-15T06:08:41;6.10;99.90
12481;DHT22;6305;48.398;11.762;2023-04-15T06:11:09;6.00;99.90
12481;DHT22;6305;48.398;11.762;2023-04-15T06:13:39;6.10;99.90
12481;DHT22;6305;48.398;11.762;2023-04-15T06:16:07;6.10;99.90
12481;DHT22;6305;48.398;11.762;2023-04-15T06:18:35;6.10;99.90
12481;DHT22;6305;48.398;11.762;2023-04-15T06:21:04;6.10;99.90
12481;DHT22;6305;48.398;11.762;2023-04-15T06:23:33;6.10;99.90
12481;DHT22;6305;48.398;11.762;2023-04-15T06:26:01;6.20;99.90
12481;DHT22;6305;48.398;11.762;2023-04-15T06:28:30;6.20;99.90
12481;DHT22;6305;48.398;11.762;2023-04-15T06:30:59;6.20;99.90
12481;DHT22;6305;48.398;11.762;2023-04-15T06:33:28;6.20;99.90
12481;DHT22;6305;48.398;11.762;2023-04-15T06:35:57;6.20;99.90
12481;DHT22;6305;48.398;11.762;2023-04-15T06:38:25;6.20;99.90
12481;DHT22;6305;48.398;11.762;2023-04-15T06:40:54;6.30;99.90
12481;DHT22;6305;48.398;11.762;2023-04-15T06:43:22;6.50;99.90
12481;DHT22;6305;48.398;11.762;2023-04-15T06:45:50;6.60;99.90
12481;DHT22;6305;48.398;11.762;2023-04-15T06:48:20;6.70;99.90
12481;DHT22;6305;48.398;11.762;2023-04-15T06:50:48;6.80;99.90
12481;DHT22;6305;48.398;11.762;2023-04-15T06:53:16;6.90;99.90
12481;DHT22;6305;48.398;11.762;2023-04-15T06:55:46;7.10;99.90
12481;DHT22;6305;48.398;11.762;2023-04-15T06:58:14;7.20;99.90
12481;DHT22;6305;48.398;11.762;2023-04-15T07:00:42;7.40;99.90
12481;DHT22;6305;48.398;11.762;2023-04-15T07:03:11;7.50;99.90
12481;DHT22;6305;48.398;11.762;2023-04-15T07:05:42;7.60;99.90
12481;DHT22;6305;48.398;11.762;2023-04-15T07:08:10;7.60;99.90
12481;DHT22;6305;48.398;11.762;2023-04-15T07:10:39;7.60;99.90
12481;DHT22;6305;48.398;11.762;2023-04-15T07:13:08;7.70;99.90
12481;DHT22;6305;48.398;11.762;2023-04-15T07:15:36;7.70;99.90
12481;DHT22;6305;48.398;11.762;2023-04-15T07:18:04;7.60;99.90
12481;DHT22;6305;48.398;11.762;2023-04-15T07:20:33;7.50;99.90
12481;DHT22;6305;48.398;11.762;2023-04-15T07:23:02;7.40;99.90
12481;DHT22;6305;48.398;11.762;2023-04-15T07:25:31;7.40;99.90
12481;DHT22;6305;48.398;11.762;2023-04-15T07:27:59;7.40;99.90
12481;DHT22;6305;48.398;11.762;2023-04-15T07:30:28;7.50;99.90
12481;DHT22;6305;48.398;11.762;2023-04-15T07:32:57;7.50;99.90
12481;DHT22;6305;48.398;11.762;2023-04-15T07:35:25;7.60;99.90
12481;DHT22;6305;48.398;11.762;2023-04-15T07:37:55;7.60;99.90
12481;DHT22;6305;48.398;11.762;2023-04-15T07:40:25;7.50;99.90
12481;DHT22;6305;48.398;11.762;2023-04-15T07:42:55;7.50;99.90
12481;DHT22;6305;48.398;11.762;2023-04-15T07:45:24;7.40;99.90
12481;DHT22;6305;48.398;11.762;2023-04-15T07:47:53;7.40;99.90
12481;DHT22;6305;48.398;11.762;2023-04-15T07:50:23;7.50;99.90
12481;DHT22;6305;48.398;11.762;2023-04-15T07:52:51;7.60;99.90
12481;DHT22;6305;48.398;11.762;2023-04-15T07:55:19;7.70;99.90
12481;DHT22;6305;48.398;11.762;2023-04-15T07:57:50;7.70;99.90
12481;DHT22;6305;48.398;11.762;2023-04-15T08:00:19;7.70;99.90
12481;DHT22;6305;48.398;11.762;2023-04-15T08:02:47;7.60;99.90
12481;DHT22;6305;48.398;11.762;2023-04-15T08:05:15;7.50;99.90
12481;DHT22;6305;48.398;11.762;2023-04-15T08:07:43;7.60;99.90
12481;DHT22;6305;48.398;11.762;2023-04-15T08:10:13;7.70;99.90
12481;DHT22;6305;48.398;11.762;2023-04-15T08:12:41;7.80;99.90
12481;DHT22;6305;48.398;11.762;2023-04-15T08:15:11;7.80;99.90
12481;DHT22;6305;48.398;11.762;2023-04-15T08:17:40;7.90;99.90
12481;DHT22;6305;48.398;11.762;2023-04-15T08:20:08;7.90;99.90
12481;DHT22;6305;48.398;11.762;2023-04-15T08:22:37;7.90;99.90
12481;DHT22;6305;48.398;11.762;2023-04-15T08:25:06;8.10;99.90
12481;DHT22;6305;48.398;11.762;2023-04-15T08:27:34;8.20;99.90
12481;DHT22;6305;48.398;11.762;2023-04-15T08:30:05;8.20;99.90
12481;DHT22;6305;48.398;11.762;2023-04-15T08:32:34;8.30;99.90
12481;DHT22;6305;48.398;11.762;2023-04-15T08:35:03;8.40;99.90
12481;DHT22;6305;48.398;11.762;2023-04-15T08:37:32;8.50;99.90
12481;DHT22;6305;48.398;11.762;2023-04-15T08:40:00;8.80;99.90
12481;DHT22;6305;48.398;11.762;2023-04-15T08:42:30;9.20;99.90
12481;DHT22;6305;48.398;11.762;2023-04-15T08:44:59;9.50;99.90
12481;DHT22;6305;48.398;11.762;2023-04-15T08:47:29;9.90;99.90
12481;DHT22;6305;48.398;11.762;2023-04-15T08:50:03;10.50;99.90
12481;DHT22;6305;48.398;11.762;2023-04-15T08:52:31;11.30;99.90
12481;DHT22;6305;48.398;11.762;2023-04-15T08:55:01;11.50;99.90
12481;DHT22;6305;48.398;11.762;2023-04-15T08:57:31;11.70;99.90
12481;DHT22;6305;48.398;11.762;2023-04-15T09:00:01;11.50;99.90
12481;DHT22;6305;48.398;11.762;2023-04-15T09:02:30;11.20;99.90
12481;DHT22;6305;48.398;11.762;2023-04-15T09:05:00;10.80;99.90
12481;DHT22;6305;48.398;11.762;2023-04-15T09:07:32;10.70;99.90
12481;DHT22;6305;48.398;11.762;2023-04-15T09:10:02;10.60;99.90
12481;DHT22;6305;48.398;11.762;2023-04-15T09:12:33;10.70;99.90
12481;DHT22;6305;48.398;11.762;2023-04-15T09:15:03;10.60;99.90
12481;DHT22;6305;48.398;11.762;2023-04-15T09:17:32;10.60;99.90
12481;DHT22;6305;48.398;11.762;2023-04-15T09:20:10;10.60;99.90
12481;DHT22;6305;48.398;11.762;2023-04-15T09:22:40;10.60;99.90
12481;DHT22;6305;48.398;11.762;2023-04-15T09:25:25;10.70;99.90
12481;DHT22;6305;48.398;11.762;2023-04-15T09:27:56;10.80;99.90
12481;DHT22;6305;48.398;11.762;2023-04-15T09:30:27;10.90;99.90
12481;DHT22;6305;48.398;11.762;2023-04-15T09:32:57;10.80;99.90
12481;DHT22;6305;48.398;11.762;2023-04-15T09:35:27;10.60;99.90
12481;DHT22;6305;48.398;11.762;2023-04-15T09:38:02;10.50;99.90
12481;DHT22;6305;48.398;11.762;2023-04-15T09:40:32;10.40;99.90
12481;DHT22;6305;48.398;11.762;2023-04-15T09:43:01;10.40;99.90
12481;DHT22;6305;48.398;11.762;2023-04-15T09:45:30;10.30;99.90
12481;DHT22;6305;48.398;11.762;2023-04-15T09:48:13;10.30;99.90
12481;DHT22;6305;48.398;11.762;2023-04-15T09:50:44;10.40;99.90
12481;DHT22;6305;48.398;11.762;2023-04-15T09:53:16;10.50;99.90
12481;DHT22;6305;48.398;11.762;2023-04-15T09:55:45;10.40;99.90
12481;DHT22;6305;48.398;11.762;2023-04-15T09:58:19;10.50;99.90
12481;DHT22;6305;48.398;11.762;2023-04-15T10:00:49;10.50;99.90
12481;DHT22;6305;48.398;11.762;2023-04-15T10:03:19;10.40;99.90
12481;DHT22;6305;48.398;11.762;2023-04-15T10:05:51;10.40;99.90
12481;DHT22;6305;48.398;11.762;2023-04-15T10:08:21;10.40;99.90
12481;DHT22;6305;48.398;11.762;2023-04-15T10:10:50;10.30;99.90
12481;DHT22;6305;48.398;11.762;2023-04-15T10:13:22;10.10;99.90
12481;DHT22;6305;48.398;11.762;2023-04-15T10:15:55;10.00;99.90
12481;DHT22;6305;48.398;11.762;2023-04-15T10:18:26;9.90;99.90
12481;DHT22;6305;48.398;11.762;2023-04-15T10:20:56;9.80;99.90
12481;DHT22;6305;48.398;11.762;2023-04-15T10:23:25;9.80;99.90
12481;DHT22;6305;48.398;11.762;2023-04-15T10:25:55;9.70;99.90
12481;DHT22;6305;48.398;11.762;2023-04-15T10:28:25;9.70;99.90
12481;DHT22;6305;48.398;11.762;2023-04-15T10:30:53;9.80;99.90
12481;DHT22;6305;48.398;11.762;2023-04-15T10:33:23;9.90;99.90
12481;DHT22;6305;48.398;11.762;2023-04-15T10:35:54;10.00;99.90
12481;DHT22;6305;48.398;11.762;2023-04-15T10:38:34;10.00;99.90
12481;DHT22;6305;48.398;11.762;2023-04-15T10:41:14;10.10;99.90
12481;DHT22;6305;48.398;11.762;2023-04-15T10:43:48;10.10;99.90
12481;DHT22;6305;48.398;11.762;2023-04-15T10:46:18;10.20;99.90
12481;DHT22;6305;48.398;11.762;2023-04-15T10:48:48;10.20;99.90
12481;DHT22;6305;48.398;11.762;2023-04-15T10:51:26;10.30;99.90
12481;DHT22;6305;48.398;11.762;2023-04-15T10:53:59;10.30;99.90
12481;DHT22;6305;48.398;11.762;2023-04-15T10:56:28;10.50;99.90
12481;DHT22;6305;48.398;11.762;2023-04-15T10:58:58;10.50;99.90
12481;DHT22;6305;48.398;11.762;2023-04-15T11:01:50;10.40;99.90
12481;DHT22;6305;48.398;11.762;2023-04-15T11:04:51;10.20;99.90
12481;DHT22;6305;48.398;11.762;2023-04-15T11:07:39;10.20;99.90
12481;DHT22;6305;48.398;11.762;2023-04-15T11:13:27;9.80;99.90
12481;DHT22;6305;48.398;11.762;2023-04-15T11:16:01;9.70;99.90
12481;DHT22;6305;48.398;11.762;2023-04-15T11:18:31;9.70;99.90
12481;DHT22;6305;48.398;11.762;2023-04-15T11:21:02;9.70;99.90
12481;DHT22;6305;48.398;11.762;2023-04-15T11:23:33;9.80;99.90
12481;DHT22;6305;48.398;11.762;2023-04-15T11:26:03;9.80;99.90
12481;DHT22;6305;48.398;11.762;2023-04-15T11:28:37;9.70;99.90
12481;DHT22;6305;48.398;11.762;2023-04-15T11:31:09;9.70;99.90
12481;DHT22;6305;48.398;11.762;2023-04-15T11:33:43;9.70;99.90
12481;DHT22;6305;48.398;11.762;2023-04-15T11:36:12;9.70;99.90
12481;DHT22;6305;48.398;11.762;2023-04-15T11:38:46;9.60;99.90
12481;DHT22;6305;48.398;11.762;2023-04-15T11:41:14;9.50;99.90
12481;DHT22;6305;48.398;11.762;2023-04-15T11:43:49;9.50;99.90
12481;DHT22;6305;48.398;11.762;2023-04-15T11:46:17;9.40;99.90
12481;DHT22;6305;48.398;11.762;2023-04-15T11:48:46;9.40;99.90
12481;DHT22;6305;48.398;11.762;2023-04-15T11:51:14;9.40;99.90
12481;DHT22;6305;48.398;11.762;2023-04-15T11:53:42;9.40;99.90
12481;DHT22;6305;48.398;11.762;2023-04-15T11:56:15;9.40;99.90
12481;DHT22;6305;48.398;11.762;2023-04-15T11:58:43;9.40;99.90
12481;DHT22;6305;48.398;11.762;2023-04-15T12:01:12;9.50;99.90
12481;DHT22;6305;48.398;11.762;2023-04-15T12:03:40;9.50;99.90
12481;DHT22;6305;48.398;11.762;2023-04-15T12:06:10;9.70;99.90
12481;DHT22;6305;48.398;11.762;2023-04-15T12:08:57;9.70;99.90
12481;DHT22;6305;48.398;11.762;2023-04-15T12:11:36;9.80;99.90
12481;DHT22;6305;48.398;11.762;2023-04-15T12:14:09;9.70;99.90
12481;DHT22;6305;48.398;11.762;2023-04-15T12:16:39;9.70;99.90
12481;DHT22;6305;48.398;11.762;2023-04-15T12:19:09;9.70;99.90
12481;DHT22;6305;48.398;11.762;2023-04-15T12:21:38;9.80;99.90
12481;DHT22;6305;48.398;11.762;2023-04-15T12:24:07;10.00;99.90
12481;DHT22;6305;48.398;11.762;2023-04-15T12:26:36;10.10;99.90
12481;DHT22;6305;48.398;11.762;2023-04-15T12:29:06;10.30;99.90
12481;DHT22;6305;48.398;11.762;2023-04-15T12:31:34;10.50;99.90
12481;DHT22;6305;48.398;11.762;2023-04-15T12:34:06;10.70;99.90
12481;DHT22;6305;48.398;11.762;2023-04-15T12:36:33;10.90;99.90
12481;DHT22;6305;48.398;11.762;2023-04-15T12:39:02;11.10;99.90
12481;DHT22;6305;48.398;11.762;2023-04-15T12:41:30;11.20;99.90
12481;DHT22;6305;48.398;11.762;2023-04-15T12:43:57;11.30;99.90
12481;DHT22;6305;48.398;11.762;2023-04-15T12:46:24;11.50;99.90
12481;DHT22;6305;48.398;11.762;2023-04-15T12:48:52;11.80;99.90
12481;DHT22;6305;48.398;11.762;2023-04-15T12:51:20;12.10;99.90
12481;DHT22;6305;48.398;11.762;2023-04-15T12:53:48;12.60;99.90
12481;DHT22;6305;48.398;11.762;2023-04-15T12:56:15;13.00;98.20
12481;DHT22;6305;48.398;11.762;2023-04-15T12:58:42;13.40;96.10
12481;DHT22;6305;48.398;11.762;2023-04-15T13:01:09;13.70;93.60
12481;DHT22;6305;48.398;11.762;2023-04-15T13:03:36;13.80;91.20
12481;DHT22;6305;48.398;11.762;2023-04-15T13:06:04;13.70;89.20
12481;DHT22;6305;48.398;11.762;2023-04-15T13:08:33;13.50;86.60
12481;DHT22;6305;48.398;11.762;2023-04-15T13:11:00;13.20;87.60
12481;DHT22;6305;48.398;11.762;2023-04-15T13:13:27;13.00;89.00
12481;DHT22;6305;48.398;11.762;2023-04-15T13:15:56;12.80;90.00
12481;DHT22;6305;48.398;11.762;2023-04-15T13:18:23;12.40;90.30
12481;DHT22;6305;48.398;11.762;2023-04-15T13:20:51;12.00;91.00
12481;DHT22;6305;48.398;11.762;2023-04-15T13:23:18;11.60;92.10
12481;DHT22;6305;48.398;11.762;2023-04-15T13:25:47;11.20;91.00
12481;DHT22;6305;48.398;11.762;2023-04-15T13:28:14;10.80;92.30
12481;DHT22;6305;48.398;11.762;2023-04-15T13:30:41;10.70;94.30
12481;DHT22;6305;48.398;11.762;2023-04-15T13:33:09;10.80;95.30
12481;DHT22;6305;48.398;11.762;2023-04-15T13:35:36;11.10;96.10
12481;DHT22;6305;48.398;11.762;2023-04-15T13:38:03;11.50;95.80
12481;DHT22;6305;48.398;11.762;2023-04-15T13:40:31;12.00;96.00
12481;DHT22;6305;48.398;11.762;2023-04-15T13:43:00;12.30;94.90
12481;DHT22;6305;48.398;11.762;2023-04-15T13:45:28;12.60;94.80
12481;DHT22;6305;48.398;11.762;2023-04-15T13:47:55;12.70;92.80
12481;DHT22;6305;48.398;11.762;2023-04-15T13:50:22;12.70;92.90
12481;DHT22;6305;48.398;11.762;2023-04-15T13:52:49;12.70;92.50
12481;DHT22;6305;48.398;11.762;2023-04-15T13:55:16;12.40;92.90
12481;DHT22;6305;48.398;11.762;2023-04-15T13:57:43;12.20;93.70
12481;DHT22;6305;48.398;11.762;2023-04-15T14:00:13;12.20;93.70
12481;DHT22;6305;48.398;11.762;2023-04-15T14:02:40;12.20;95.30
12481;DHT22;6305;48.398;11.762;2023-04-15T14:05:10;12.20;95.00
12481;DHT22;6305;48.398;11.762;2023-04-15T14:07:37;12.10;93.80
12481;DHT22;6305;48.398;11.762;2023-04-15T14:10:04;12.00;94.40
12481;DHT22;6305;48.398;11.762;2023-04-15T14:12:32;11.80;94.60
12481;DHT22;6305;48.398;11.762;2023-04-15T14:14:59;11.60;94.00
12481;DHT22;6305;48.398;11.762;2023-04-15T14:17:28;11.30;95.10
12481;DHT22;6305;48.398;11.762;2023-04-15T14:19:55;11.00;95.60
12481;DHT22;6305;48.398;11.762;2023-04-15T14:22:22;10.80;96.50
12481;DHT22;6305;48.398;11.762;2023-04-15T14:24:49;10.60;98.10
12481;DHT22;6305;48.398;11.762;2023-04-15T14:27:18;10.50;98.50
12481;DHT22;6305;48.398;11.762;2023-04-15T14:29:45;10.30;99.30
12481;DHT22;6305;48.398;11.762;2023-04-15T14:32:12;10.20;99.90
12481;DHT22;6305;48.398;11.762;2023-04-15T14:34:40;10.10;99.90
12481;DHT22;6305;48.398;11.762;2023-04-15T14:37:08;9.90;99.90
12481;DHT22;6305;48.398;11.762;2023-04-15T14:39:35;9.80;99.90
12481;DHT22;6305;48.398;11.762;2023-04-15T14:42:02;9.70;99.90
12481;DHT22;6305;48.398;11.762;2023-04-15T14:44:30;9.60;99.90
12481;DHT22;6305;48.398;11.762;2023-04-15T14:46:57;9.60;99.90
12481;DHT22;6305;48.398;11.762;2023-04-15T14:49:24;9.60;99.90
12481;DHT22;6305;48.398;11.762;2023-04-15T14:51:53;9.50;99.90
12481;DHT22;6305;48.398;11.762;2023-04-15T14:54:20;9.30;99.90
12481;DHT22;6305;48.398;11.762;2023-04-15T14:56:47;9.20;99.90
12481;DHT22;6305;48.398;11.762;2023-04-15T14:59:14;9.10;99.90
12481;DHT22;6305;48.398;11.762;2023-04-15T15:01:41;9.00;99.90
12481;DHT22;6305;48.398;11.762;2023-04-15T15:04:09;8.90;99.90
12481;DHT22;6305;48.398;11.762;2023-04-15T15:06:36;8.70;99.90
12481;DHT22;6305;48.398;11.762;2023-04-15T15:09:04;8.70;99.90
12481;DHT22;6305;48.398;11.762;2023-04-15T15:11:32;8.50;99.90
12481;DHT22;6305;48.398;11.762;2023-04-15T15:14:00;8.40;99.90
12481;DHT22;6305;48.398;11.762;2023-04-15T15:16:27;8.30;99.90
12481;DHT22;6305;48.398;11.762;2023-04-15T15:18:54;8.20;99.90
12481;DHT22;6305;48.398;11.762;2023-04-15T15:21:21;8.00;99.90
12481;DHT22;6305;48.398;11.762;2023-04-15T15:23:48;7.80;99.90
12481;DHT22;6305;48.398;11.762;2023-04-15T15:26:17;7.60;99.90
12481;DHT22;6305;48.398;11.762;2023-04-15T15:28:44;7.50;99.90
12481;DHT22;6305;48.398;11.762;2023-04-15T15:31:11;7.50;99.90
12481;DHT22;6305;48.398;11.762;2023-04-15T15:33:38;7.50;99.90
12481;DHT22;6305;48.398;11.762;2023-04-15T15:36:06;7.60;99.90
12481;DHT22;6305;48.398;11.762;2023-04-15T15:38:33;7.60;99.90
12481;DHT22;6305;48.398;11.762;2023-04-15T15:41:00;7.70;99.90
12481;DHT22;6305;48.398;11.762;2023-04-15T15:43:28;7.70;99.90
12481;DHT22;6305;48.398;11.762;2023-04-15T15:45:55;7.70;99.90
12481;DHT22;6305;48.398;11.762;2023-04-15T15:48:22;7.70;99.90
12481;DHT22;6305;48.398;11.762;2023-04-15T15:50:50;7.70;99.90
12481;DHT22;6305;48.398;11.762;2023-04-15T15:53:18;7.70;99.90
12481;DHT22;6305;48.398;11.762;2023-04-15T15:55:49;7.60;99.90
12481;DHT22;6305;48.398;11.762;2023-04-15T15:58:16;7.60;99.90